»·PEaware :: N213DS KVCV-KSEE

N213DS :: KVCV-KSEE

FLIGHT INFORMATION

Flight Status: Arrived
Operator: Privately registered:
United States
More flights under this callsign
Pilot: Robert D. (13877)
Aircraft: Diamond DA-40
(DA40)
More flights by this aircraft type
Origin: KVCV Socal Logistics
United States
Destination: KSEE Gillespie
United States
More flights between these airports :: More routes between these airports
Route: +EMMLN V442 PDZ V186 ROBNN
File this flight plan on PilotEdge
Remarks:
Altitude:
(Current/Filed)
10,000ft
Speed:
(Current/Filed)
130kts
Departed: 12-Aug-20 08:07 AM
Arrived: 12-Aug-20 09:12 AM
Distance/Time
Traveled:
108nm/1:05
Distance/Time
To Go:
Arrived

Flight Plot

Page will automatically refresh every two minutes.

Flight plan parsing failed; only flown route is shown


Map Options




Map Legend


Flown Route
Filed Route
Departure Airport
Arrival Airport
Navaid (VOR, NDB)
Fix

Horizontal Profiles

Position Reports

Time Latitude Longitude Heading Altitude Ground
Speed
12-Aug-20 07:45 34.588333 -117.376342 314 2870ft 0kts
12-Aug-20 07:46 34.588333 -117.376342 314 2870ft 0kts
12-Aug-20 07:47 34.588333 -117.376342 314 2870ft 0kts
12-Aug-20 07:48 34.588333 -117.376342 314 2870ft 0kts
12-Aug-20 07:49 34.588333 -117.376342 314 2870ft 0kts
12-Aug-20 07:50 34.588333 -117.376342 314 2870ft 0kts
12-Aug-20 07:51 34.588333 -117.376342 314 2870ft 0kts
12-Aug-20 07:52 34.588333 -117.376342 314 2870ft 0kts
12-Aug-20 07:53 34.588333 -117.376342 314 2870ft 0kts
12-Aug-20 07:54 34.588333 -117.376342 314 2870ft 0kts
12-Aug-20 07:55 34.588333 -117.376342 314 2870ft 0kts
12-Aug-20 07:56 34.588334 -117.376344 313 2870ft 0kts
12-Aug-20 07:57 34.588334 -117.376344 313 2870ft 0kts
12-Aug-20 07:58 34.588486 -117.376494 344 2870ft 3kts
12-Aug-20 07:58 34.589372 -117.375887 21 2867ft 3kts
12-Aug-20 08:00 34.590862 -117.374661 34 2865ft 19kts
12-Aug-20 08:01 34.593646 -117.367954 33 2856ft 15kts
12-Aug-20 08:01 34.598007 -117.366860 13 2845ft 20kts
12-Aug-20 08:03 34.599081 -117.366612 23 2843ft 0kts
12-Aug-20 08:03 34.599081 -117.366612 23 2843ft 0kts
12-Aug-20 08:04 34.599081 -117.366612 23 2843ft 0kts
12-Aug-20 08:05 34.599965 -117.367192 224 2842ft 6kts
12-Aug-20 08:06 34.588884 -117.380533 221 3566ft 79kts
12-Aug-20 08:07 34.584968 -117.410014 262 4587ft 98kts
12-Aug-20 08:08 34.584350 -117.443351 263 5575ft 100kts
12-Aug-20 08:09 34.583646 -117.479948 262 6016ft 126kts
12-Aug-20 08:10 34.568675 -117.508166 178 6704ft 96kts
12-Aug-20 08:11 34.546877 -117.489517 137 7375ft 99kts
12-Aug-20 08:12 34.528876 -117.465458 134 8082ft 100kts
12-Aug-20 08:13 34.511670 -117.441680 137 8765ft 102kts
12-Aug-20 08:14 34.495066 -117.417233 137 9356ft 103kts
12-Aug-20 08:15 34.478111 -117.393134 136 9822ft 105kts
12-Aug-20 08:16 34.458662 -117.370176 152 9943ft 128kts
12-Aug-20 08:17 34.431615 -117.348525 154 9955ft 122kts
12-Aug-20 08:18 34.403286 -117.329881 157 10013ft 119kts
12-Aug-20 08:19 34.373128 -117.312452 160 10012ft 120kts
12-Aug-20 08:20 34.339626 -117.298872 184 9598ft 132kts
12-Aug-20 08:21 34.302211 -117.303998 185 8941ft 134kts
12-Aug-20 08:22 34.269946 -117.317246 216 8919ft 121kts
12-Aug-20 08:23 34.240432 -117.336592 211 8908ft 122kts
12-Aug-20 08:24 34.210868 -117.354438 211 8906ft 121kts
12-Aug-20 08:25 34.181304 -117.372268 211 8906ft 121kts
12-Aug-20 08:26 34.152006 -117.389930 211 8905ft 121kts
12-Aug-20 08:27 34.122234 -117.407833 211 8905ft 122kts
12-Aug-20 08:28 34.092737 -117.425630 212 8903ft 121kts
12-Aug-20 08:29 34.063073 -117.443639 212 8902ft 120kts
12-Aug-20 08:30 34.033356 -117.461533 212 8900ft 120kts
12-Aug-20 08:31 34.003487 -117.479468 212 8899ft 120kts
12-Aug-20 08:32 33.973583 -117.497409 212 8897ft 120kts
12-Aug-20 08:33 33.943607 -117.515378 212 8897ft 120kts
12-Aug-20 08:34 33.912390 -117.526052 155 8886ft 133kts
12-Aug-20 08:35 33.882844 -117.500295 151 8898ft 133kts
12-Aug-20 08:36 33.852428 -117.475079 151 8900ft 133kts
12-Aug-20 08:37 33.822190 -117.449761 151 8903ft 133kts
12-Aug-20 08:38 33.792045 -117.424529 151 8907ft 133kts
12-Aug-20 08:39 33.761876 -117.399294 151 8911ft 133kts
12-Aug-20 08:40 33.731943 -117.374332 151 8910ft 133kts
12-Aug-20 08:41 33.702103 -117.349376 151 8907ft 133kts
12-Aug-20 08:42 33.672255 -117.324469 151 8904ft 132kts
12-Aug-20 08:43 33.642147 -117.299372 151 8903ft 132kts
12-Aug-20 08:44 33.612217 -117.274443 151 8902ft 132kts
12-Aug-20 08:45 33.582297 -117.249545 151 8903ft 132kts
12-Aug-20 08:46 33.552235 -117.224554 151 8903ft 132kts
12-Aug-20 08:47 33.522089 -117.199517 151 8901ft 132kts
12-Aug-20 08:48 33.491921 -117.174410 151 8898ft 132kts
12-Aug-20 08:49 33.461866 -117.149331 151 8893ft 132kts
12-Aug-20 08:50 33.431849 -117.124196 151 8888ft 132kts
12-Aug-20 08:51 33.401782 -117.099015 151 8889ft 132kts
12-Aug-20 08:52 33.371657 -117.073830 151 8890ft 132kts
12-Aug-20 08:53 33.341681 -117.048812 151 8892ft 132kts
12-Aug-20 08:54 33.311525 -117.023689 151 8893ft 133kts
12-Aug-20 08:55 33.281194 -116.998465 151 8893ft 133kts
12-Aug-20 08:56 33.250692 -116.973138 151 8896ft 133kts
12-Aug-20 08:57 33.217129 -116.946007 151 8336ft 153kts
12-Aug-20 08:58 33.181310 -116.917900 151 7738ft 157kts
12-Aug-20 08:59 33.144307 -116.889802 151 7040ft 158kts
12-Aug-20 09:00 33.106869 -116.862236 151 6344ft 158kts
12-Aug-20 09:01 33.067387 -116.842832 161 5914ft 144kts
12-Aug-20 09:02 33.031827 -116.826107 162 5916ft 134kts
12-Aug-20 09:03 32.993436 -116.826742 181 5547ft 144kts
12-Aug-20 09:04 32.953113 -116.828508 181 5022ft 146kts
12-Aug-20 09:05 32.915439 -116.829958 181 4911ft 133kts
12-Aug-20 09:06 32.877735 -116.832518 196 4501ft 141kts
12-Aug-20 09:07 32.839537 -116.847821 206 3682ft 145kts
12-Aug-20 09:08 32.827442 -116.886063 281 2999ft 123kts
12-Aug-20 09:09 32.827043 -116.925721 252 1909ft 143kts
12-Aug-20 09:10 32.826299 -116.963871 284 557ft 93kts
12-Aug-20 09:11 32.829112 -116.979346 282 359ft 24kts
12-Aug-20 09:12 32.829003 -116.981282 186 355ft 0kts
12-Aug-20 09:13 32.827667 -116.981003 106 356ft 8kts
12-Aug-20 09:14 32.827022 -116.977524 100 363ft 12kts
12-Aug-20 09:15 32.826227 -116.973087 101 369ft 14kts
12-Aug-20 09:16 32.824708 -116.970258 199 377ft 0kts
12-Aug-20 09:17 32.824708 -116.970258 199 377ft 0kts
12-Aug-20 09:18 32.824708 -116.970258 199 377ft 0kts

Navigation Log

Ident Type
Flight plan parsing failed, navigation log unavailable